createdAt,value
2022-12-08T00:01:03.982Z,11.47
2022-12-08T00:03:31.267Z,11.00
2022-12-08T00:06:16.423Z,11.57
2022-12-08T00:09:02.034Z,13.33
2022-12-08T00:11:28.719Z,9.60
2022-12-08T00:13:55.507Z,10.47
2022-12-08T00:16:23.035Z,10.57
2022-12-08T00:18:49.728Z,10.70
2022-12-08T00:21:16.431Z,10.93
2022-12-08T00:23:43.060Z,11.00
2022-12-08T00:26:09.994Z,11.50
2022-12-08T00:28:36.668Z,13.37
2022-12-08T00:31:12.961Z,13.43
2022-12-08T00:33:39.904Z,11.27
2022-12-08T00:36:11.549Z,12.33
2022-12-08T00:38:39.533Z,12.27
2022-12-08T00:41:18.246Z,10.83
2022-12-08T00:43:45.452Z,12.47
2022-12-08T00:46:12.316Z,12.87
2022-12-08T00:48:39.630Z,11.77
2022-12-08T00:51:06.347Z,12.90
2022-12-08T00:53:33.143Z,10.93
2022-12-08T00:55:59.753Z,8.87
2022-12-08T00:58:26.518Z,11.53
2022-12-08T01:00:53.229Z,11.17
2022-12-08T01:03:19.932Z,9.87
2022-12-08T01:05:46.858Z,10.33
2022-12-08T01:08:13.653Z,9.73
2022-12-08T01:10:40.407Z,10.03
2022-12-08T01:13:07.081Z,10.30
2022-12-08T01:15:33.795Z,10.50
2022-12-08T01:18:00.562Z,9.07
2022-12-08T01:20:27.383Z,10.00
2022-12-08T01:22:54.170Z,10.10
2022-12-08T01:25:20.936Z,9.93
2022-12-08T01:27:48.351Z,9.20
2022-12-08T01:30:15.106Z,10.77
2022-12-08T01:32:41.863Z,10.80
2022-12-08T01:35:09.050Z,13.23
2022-12-08T01:37:35.733Z,8.40
2022-12-08T01:40:03.075Z,9.83
2022-12-08T01:42:32.314Z,9.97
2022-12-08T01:45:02.894Z,9.70
2022-12-08T01:47:40.909Z,10.37
2022-12-08T01:50:12.383Z,10.73
2022-12-08T01:52:44.055Z,11.40
2022-12-08T01:55:40.029Z,11.23
2022-12-08T01:58:15.248Z,8.83
2022-12-08T02:00:42.521Z,8.27
2022-12-08T02:03:14.597Z,7.80
2022-12-08T02:05:42.031Z,8.50
2022-12-08T02:08:11.469Z,8.73
2022-12-08T02:10:40.652Z,7.77
2022-12-08T02:13:11.231Z,8.80
2022-12-08T02:15:46.707Z,6.37
2022-12-08T02:19:14.831Z,10.70
2022-12-08T02:21:56.976Z,7.43
2022-12-08T02:24:51.860Z,7.20
2022-12-08T02:27:29.471Z,8.97
2022-12-08T02:30:02.331Z,8.00
2022-12-08T02:33:06.850Z,8.03
2022-12-08T02:35:51.540Z,7.03
2022-12-08T02:38:27.089Z,7.57
2022-12-08T02:41:00.283Z,8.53
2022-12-08T02:43:38.956Z,6.57
2022-12-08T02:46:10.285Z,8.23
2022-12-08T02:48:37.786Z,7.27
2022-12-08T02:51:05.781Z,7.37
2022-12-08T02:53:34.500Z,6.93
2022-12-08T02:56:39.331Z,6.20
2022-12-08T02:59:33.005Z,6.60
2022-12-08T03:01:59.768Z,7.00
2022-12-08T03:04:43.544Z,7.50
2022-12-08T03:07:54.639Z,8.30
2022-12-08T03:10:37.027Z,5.00
2022-12-08T03:13:14.330Z,6.43
2022-12-08T03:15:43.011Z,6.70
2022-12-08T03:18:13.074Z,6.10
2022-12-08T03:20:41.724Z,7.73
2022-12-08T03:23:11.921Z,5.83
2022-12-08T03:25:43.791Z,4.93
2022-12-08T03:28:12.735Z,5.47
2022-12-08T03:30:42.071Z,4.90
2022-12-08T03:33:28.992Z,4.47
2022-12-08T03:35:56.996Z,4.50
2022-12-08T03:38:23.676Z,6.47
2022-12-08T03:41:10.538Z,4.83
2022-12-08T03:43:37.255Z,4.13
2022-12-08T03:46:04.304Z,4.77
2022-12-08T03:48:31.136Z,5.00
2022-12-08T03:50:57.902Z,3.67
2022-12-08T03:53:24.810Z,3.63
2022-12-08T03:55:53.296Z,5.50
2022-12-08T03:58:19.949Z,4.83
2022-12-08T04:00:46.843Z,3.83
2022-12-08T04:03:13.572Z,5.23
2022-12-08T04:05:40.651Z,4.90
2022-12-08T04:08:07.476Z,4.27
2022-12-08T04:10:34.152Z,5.37
2022-12-08T04:13:00.991Z,3.47
2022-12-08T04:15:27.682Z,5.27
2022-12-08T04:17:54.477Z,3.50
2022-12-08T04:20:21.178Z,4.17
2022-12-08T04:22:47.970Z,3.97
2022-12-08T04:25:14.823Z,4.80
2022-12-08T04:27:41.635Z,4.73
2022-12-08T04:30:08.950Z,3.67
2022-12-08T04:32:35.725Z,3.73
2022-12-08T04:35:02.491Z,4.60
2022-12-08T04:37:29.516Z,4.20
2022-12-08T04:39:56.185Z,4.13
2022-12-08T04:42:23.079Z,3.60
2022-12-08T04:44:49.804Z,3.83
2022-12-08T04:47:16.640Z,5.17
2022-12-08T04:49:43.700Z,4.80
2022-12-08T04:52:10.370Z,3.90
2022-12-08T04:54:37.430Z,3.50
2022-12-08T04:57:04.287Z,3.13
2022-12-08T04:59:31.152Z,4.00
2022-12-08T05:01:58.111Z,3.90
2022-12-08T05:04:24.974Z,3.53
2022-12-08T05:06:51.855Z,3.70
2022-12-08T05:09:18.582Z,3.13
2022-12-08T05:11:49.020Z,3.70
2022-12-08T05:14:18.152Z,4.20
2022-12-08T05:16:45.415Z,3.60
2022-12-08T05:19:12.915Z,5.10
2022-12-08T05:21:39.802Z,3.47
2022-12-08T05:24:07.180Z,4.23
2022-12-08T05:26:33.952Z,3.73
2022-12-08T05:29:00.814Z,3.53
2022-12-08T05:31:27.713Z,5.27
2022-12-08T05:33:57.384Z,4.30
2022-12-08T05:36:26.623Z,3.43
2022-12-08T05:38:53.280Z,4.07
2022-12-08T05:41:21.128Z,5.07
2022-12-08T05:43:48.232Z,4.13
2022-12-08T05:46:15.720Z,4.23
2022-12-08T05:48:42.607Z,4.27
2022-12-08T05:51:17.907Z,4.13
2022-12-08T05:53:45.231Z,4.63
2022-12-08T05:56:12.404Z,3.83
2022-12-08T05:58:39.912Z,6.40
2022-12-08T06:01:07.003Z,3.93
2022-12-08T06:03:33.943Z,4.30
2022-12-08T06:06:00.941Z,4.20
2022-12-08T06:08:27.620Z,3.97
2022-12-08T06:10:54.434Z,4.00
2022-12-08T06:13:21.228Z,5.20
2022-12-08T06:15:47.888Z,3.90
2022-12-08T06:18:14.702Z,3.77
2022-12-08T06:20:41.316Z,5.00
2022-12-08T06:23:08.131Z,4.77
2022-12-08T06:25:34.882Z,4.27
2022-12-08T06:28:01.784Z,8.43
2022-12-08T06:30:28.659Z,4.77
2022-12-08T06:32:55.434Z,4.20
2022-12-08T06:35:22.140Z,6.07
2022-12-08T06:37:49.088Z,4.97
2022-12-08T06:40:15.918Z,6.50
2022-12-08T06:42:44.457Z,4.90
2022-12-08T06:45:12.898Z,4.90
2022-12-08T06:47:39.993Z,4.97
2022-12-08T06:50:07.964Z,4.87
2022-12-08T06:52:37.696Z,5.37
2022-12-08T06:55:08.946Z,5.17
2022-12-08T06:57:35.729Z,6.30
2022-12-08T07:00:04.063Z,5.77
2022-12-08T07:02:31.263Z,6.33
2022-12-08T07:04:58.030Z,6.60
2022-12-08T07:07:25.362Z,5.87
2022-12-08T07:09:52.029Z,7.40
2022-12-08T07:12:18.957Z,5.90
2022-12-08T07:14:45.835Z,6.77
2022-12-08T07:17:12.571Z,6.23
2022-12-08T07:19:39.817Z,6.50
2022-12-08T07:22:06.500Z,7.63
2022-12-08T07:24:33.394Z,6.73
2022-12-08T07:27:00.212Z,6.93
2022-12-08T07:29:26.807Z,5.77
2022-12-08T07:31:53.682Z,7.93
2022-12-08T07:34:20.383Z,5.97
2022-12-08T07:36:47.082Z,6.97
2022-12-08T07:39:13.840Z,5.97
2022-12-08T07:41:40.519Z,6.93
2022-12-08T07:44:07.476Z,7.10
2022-12-08T07:46:34.208Z,6.53
2022-12-08T07:49:01.527Z,7.17
2022-12-08T07:51:28.199Z,5.43
2022-12-08T07:53:55.426Z,6.63
2022-12-08T07:56:22.556Z,6.80
2022-12-08T07:58:49.351Z,7.47
2022-12-08T08:01:20.477Z,6.20
2022-12-08T08:03:47.528Z,6.87
2022-12-08T08:06:14.215Z,7.17
2022-12-08T08:08:40.958Z,6.03
2022-12-08T08:11:15.762Z,6.80
2022-12-08T08:13:45.909Z,6.77
2022-12-08T08:16:13.833Z,7.57
2022-12-08T08:18:40.778Z,7.30
2022-12-08T08:21:43.082Z,6.30
2022-12-08T08:23:54.684Z,5.40
2022-12-08T08:26:21.474Z,5.60
2022-12-08T08:28:49.956Z,4.90
2022-12-08T08:31:16.909Z,6.43
2022-12-08T08:33:43.559Z,6.60
2022-12-08T08:36:10.851Z,7.47
2022-12-08T08:38:42.917Z,7.47
2022-12-08T08:41:10.792Z,5.57
2022-12-08T08:43:38.774Z,5.80
2022-12-08T08:46:06.926Z,7.37
2022-12-08T08:48:33.855Z,6.43
2022-12-08T08:51:08.125Z,6.73
2022-12-08T08:53:34.835Z,5.33
2022-12-08T08:56:02.996Z,5.10
2022-12-08T08:58:29.803Z,7.40
2022-12-08T09:00:56.503Z,5.47
2022-12-08T09:03:23.191Z,5.17
2022-12-08T09:05:51.465Z,5.77
2022-12-08T09:08:18.678Z,6.10
2022-12-08T09:10:45.468Z,5.43
2022-12-08T09:13:12.268Z,7.60
2022-12-08T09:15:39.551Z,6.63
2022-12-08T09:18:06.795Z,6.47
2022-12-08T09:20:34.863Z,6.87
2022-12-08T09:23:01.884Z,5.70
2022-12-08T09:25:29.156Z,6.40
2022-12-08T09:27:55.794Z,5.13
2022-12-08T09:30:22.546Z,5.23
2022-12-08T09:32:49.270Z,6.80
2022-12-08T09:35:16.346Z,4.43
2022-12-08T09:37:43.206Z,5.97
2022-12-08T09:40:15.916Z,5.47
2022-12-08T09:43:02.280Z,5.57
2022-12-08T09:45:33.338Z,4.33
2022-12-08T09:48:15.947Z,7.27
2022-12-08T09:50:53.709Z,7.17
2022-12-08T09:53:45.222Z,5.23
2022-12-08T09:56:22.506Z,5.13
2022-12-08T09:59:25.840Z,6.07
2022-12-08T10:01:52.858Z,5.97
2022-12-08T10:04:32.259Z,6.17
2022-12-08T10:07:36.670Z,4.50
2022-12-08T10:10:37.951Z,5.63
2022-12-08T10:13:35.519Z,5.50
2022-12-08T10:16:24.262Z,4.90
2022-12-08T10:19:09.180Z,6.00
2022-12-08T10:21:35.947Z,3.43
2022-12-08T10:24:12.350Z,5.47
2022-12-08T10:26:40.543Z,5.67
2022-12-08T10:29:12.403Z,6.53
2022-12-08T10:31:39.300Z,4.67
2022-12-08T10:34:23.142Z,5.10
2022-12-08T10:36:56.244Z,5.27
2022-12-08T10:39:46.085Z,5.77
2022-12-08T10:42:21.362Z,6.73
2022-12-08T10:45:09.432Z,11.60
2022-12-08T10:47:42.484Z,7.20
2022-12-08T10:50:31.708Z,6.77
2022-12-08T10:53:01.846Z,5.97
2022-12-08T10:55:29.810Z,6.30
2022-12-08T10:57:56.676Z,7.23
2022-12-08T11:00:28.154Z,7.00
2022-12-08T11:03:04.343Z,6.83
2022-12-08T11:05:36.283Z,5.37
2022-12-08T11:08:05.719Z,6.43
2022-12-08T11:10:42.271Z,6.80
2022-12-08T11:13:26.262Z,7.20
2022-12-08T11:15:55.234Z,5.47
2022-12-08T11:18:39.622Z,5.23
2022-12-08T11:21:13.413Z,4.97
2022-12-08T11:23:42.525Z,5.97
2022-12-08T11:26:30.915Z,4.73
2022-12-08T11:28:58.054Z,5.43
2022-12-08T11:31:35.081Z,4.57
2022-12-08T11:34:03.172Z,4.77
2022-12-08T11:36:33.386Z,7.07
2022-12-08T11:39:04.448Z,6.83
2022-12-08T11:41:37.527Z,7.13
2022-12-08T11:44:42.517Z,5.77
2022-12-08T11:47:15.052Z,5.37
2022-12-08T11:49:43.224Z,4.50
2022-12-08T11:52:18.835Z,3.93
2022-12-08T11:54:52.171Z,7.33
2022-12-08T11:57:23.303Z,4.50
2022-12-08T11:59:52.224Z,3.70
2022-12-08T12:02:29.190Z,4.60
2022-12-08T12:05:09.953Z,4.00
2022-12-08T12:08:04.243Z,3.57
2022-12-08T12:10:33.956Z,4.00
2022-12-08T12:13:25.454Z,3.57
2022-12-08T12:16:31.359Z,3.57
2022-12-08T12:19:05.804Z,2.60
2022-12-08T12:21:38.852Z,3.27
2022-12-08T12:24:26.743Z,3.17
2022-12-08T12:27:05.055Z,2.83
2022-12-08T12:29:36.534Z,2.30
2022-12-08T12:32:06.678Z,3.87
2022-12-08T12:34:37.345Z,3.57
2022-12-08T12:37:07.069Z,3.63
2022-12-08T12:39:55.872Z,3.73
2022-12-08T12:42:42.727Z,3.63
2022-12-08T12:45:20.013Z,3.33
2022-12-08T12:48:19.667Z,4.53
2022-12-08T12:50:48.467Z,4.23
2022-12-08T12:53:19.078Z,3.83
2022-12-08T12:55:45.827Z,4.70
2022-12-08T12:58:27.709Z,6.27
2022-12-08T13:01:12.878Z,6.57
2022-12-08T13:03:47.338Z,4.70
2022-12-08T13:06:21.070Z,5.20
2022-12-08T13:08:53.215Z,5.60
2022-12-08T13:11:21.141Z,6.77
2022-12-08T13:14:03.812Z,5.37
2022-12-08T13:16:55.769Z,5.67
2022-12-08T13:19:22.836Z,6.97
2022-12-08T13:21:49.552Z,7.17
2022-12-08T13:24:25.574Z,5.40
2022-12-08T13:27:04.499Z,4.63
2022-12-08T13:29:32.929Z,6.67
2022-12-08T13:32:03.998Z,6.67
2022-12-08T13:34:51.737Z,5.67
2022-12-08T13:37:56.700Z,6.23
2022-12-08T13:40:28.142Z,5.03
2022-12-08T13:43:10.157Z,4.70
2022-12-08T13:46:34.655Z,3.77
2022-12-08T13:57:42.396Z,4.07
2022-12-08T14:00:21.107Z,5.10
2022-12-08T14:02:51.059Z,5.23
2022-12-08T14:05:30.062Z,3.90
2022-12-08T14:08:50.946Z,4.20
2022-12-08T14:11:33.333Z,2.87
2022-12-08T14:14:45.814Z,4.13
2022-12-08T14:17:12.841Z,4.20
2022-12-08T14:19:42.220Z,3.60
2022-12-08T14:22:13.831Z,5.20
2022-12-08T14:24:44.108Z,4.13
2022-12-08T14:27:24.151Z,4.57
2022-12-08T14:30:00.287Z,4.77
2022-12-08T14:32:48.958Z,4.60
2022-12-08T14:35:28.005Z,3.53
2022-12-08T14:38:04.626Z,5.50
2022-12-08T14:40:40.327Z,5.10
2022-12-08T14:43:10.254Z,6.77
2022-12-08T14:45:42.632Z,5.63
2022-12-08T14:48:31.331Z,5.10
2022-12-08T14:51:04.041Z,4.73
2022-12-08T14:53:40.410Z,5.30
2022-12-08T14:56:23.630Z,5.17
2022-12-08T14:59:03.338Z,6.03
2022-12-08T15:01:30.687Z,7.73
2022-12-08T15:04:13.873Z,8.60
2022-12-08T15:07:04.747Z,6.43
2022-12-08T15:09:34.636Z,6.17
2022-12-08T15:12:24.808Z,6.87
2022-12-08T15:14:57.843Z,6.20
2022-12-08T15:17:41.633Z,5.87
2022-12-08T15:20:38.581Z,6.33
2022-12-08T15:23:05.799Z,5.23
2022-12-08T15:25:32.831Z,7.07
2022-12-08T15:28:01.770Z,5.20
2022-12-08T15:30:28.721Z,6.40
2022-12-08T15:32:56.408Z,8.87
2022-12-08T15:35:23.247Z,8.20
2022-12-08T15:37:50.090Z,9.10
2022-12-08T15:40:19.561Z,7.87
2022-12-08T15:42:46.883Z,6.83
2022-12-08T15:45:14.409Z,6.43
2022-12-08T15:47:45.568Z,5.67
2022-12-08T15:50:18.074Z,7.23
2022-12-08T15:52:44.779Z,7.17
2022-12-08T15:55:16.620Z,10.10
2022-12-08T16:00:53.463Z,9.83
2022-12-08T16:09:12.437Z,8.60
2022-12-08T16:12:08.167Z,8.33
2022-12-08T16:17:23.930Z,7.27
2022-12-08T16:19:50.552Z,8.77
2022-12-08T16:25:22.860Z,11.73
2022-12-08T16:28:17.313Z,8.43
2022-12-08T16:30:42.066Z,7.70
2022-12-08T16:33:11.826Z,9.67
2022-12-08T16:35:38.968Z,9.00
2022-12-08T16:38:05.747Z,10.43
2022-12-08T16:40:32.599Z,10.50
2022-12-08T16:42:59.264Z,8.87
2022-12-08T16:45:28.693Z,8.53
2022-12-08T16:48:00.625Z,8.87
2022-12-08T16:50:33.312Z,8.30
2022-12-08T16:53:04.299Z,7.97
2022-12-08T16:55:31.125Z,8.33
2022-12-08T16:57:58.056Z,8.40
2022-12-08T17:00:27.115Z,8.00
2022-12-08T17:02:55.103Z,6.93
2022-12-08T17:05:24.266Z,11.77
2022-12-08T17:07:53.542Z,13.27
2022-12-08T17:10:23.269Z,17.50
2022-12-08T17:12:50.347Z,14.60
2022-12-08T17:15:20.026Z,16.53
2022-12-08T17:17:47.119Z,16.17
2022-12-08T17:20:20.667Z,14.13
2022-12-08T17:22:47.856Z,10.00
2022-12-08T17:25:15.093Z,11.43
2022-12-08T17:27:42.156Z,6.80
2022-12-08T17:30:11.690Z,6.00
2022-12-08T17:32:39.035Z,6.93
2022-12-08T17:35:07.173Z,6.17
2022-12-08T17:37:34.311Z,8.97
2022-12-08T17:40:01.028Z,7.37
2022-12-08T17:42:27.840Z,7.47
2022-12-08T17:44:54.836Z,5.47
2022-12-08T17:47:21.800Z,5.37
2022-12-08T17:49:48.459Z,8.20
2022-12-08T17:52:15.320Z,5.27
2022-12-08T17:54:42.137Z,5.43
2022-12-08T17:57:08.938Z,9.17
2022-12-08T17:59:35.660Z,7.33
2022-12-08T18:02:02.677Z,6.50
2022-12-08T18:04:29.591Z,6.37
2022-12-08T18:06:59.283Z,5.13
2022-12-08T18:09:26.241Z,6.30
2022-12-08T18:11:53.050Z,6.53
2022-12-08T18:14:20.074Z,8.13
2022-12-08T18:16:47.663Z,7.33
2022-12-08T18:19:15.639Z,7.00
2022-12-08T18:21:43.458Z,7.20
2022-12-08T18:24:18.362Z,6.20
2022-12-08T18:26:45.386Z,4.97
2022-12-08T18:29:12.096Z,4.93
2022-12-08T18:31:38.770Z,4.23
2022-12-08T18:34:05.475Z,4.93
2022-12-08T18:36:32.135Z,6.00
2022-12-08T18:38:58.979Z,4.53
2022-12-08T18:41:26.067Z,4.37
2022-12-08T18:43:55.528Z,4.03
2022-12-08T18:46:23.047Z,5.93
2022-12-08T18:48:51.336Z,5.43
2022-12-08T18:51:20.503Z,5.20
2022-12-08T18:53:48.085Z,5.27
2022-12-08T18:56:28.054Z,6.50
2022-12-08T18:59:01.298Z,8.37
2022-12-08T19:01:30.030Z,8.20
2022-12-08T19:04:26.669Z,8.50
2022-12-08T19:06:46.058Z,7.57
2022-12-08T19:09:14.215Z,6.77
2022-12-08T19:11:41.511Z,6.87
2022-12-08T19:14:08.649Z,10.37
2022-12-08T19:16:35.808Z,5.80
2022-12-08T19:19:03.169Z,7.03
2022-12-08T19:21:30.558Z,7.67
2022-12-08T19:23:58.527Z,6.60
2022-12-08T19:26:27.341Z,6.10
2022-12-08T19:28:54.416Z,6.97
2022-12-08T19:31:21.127Z,8.07
2022-12-08T19:33:48.215Z,6.57
2022-12-08T19:36:18.608Z,9.20
2022-12-08T19:39:03.984Z,7.80
2022-12-08T19:41:49.438Z,8.00
2022-12-08T19:44:39.032Z,7.27
2022-12-08T19:47:06.224Z,9.43
2022-12-08T19:49:33.179Z,8.77
2022-12-08T19:52:00.036Z,8.93
2022-12-08T19:54:27.310Z,8.67
2022-12-08T19:56:54.044Z,9.77
2022-12-08T19:59:21.445Z,10.80
2022-12-08T20:01:48.440Z,11.70
2022-12-08T20:04:16.777Z,20.33
2022-12-08T20:06:45.121Z,26.20
2022-12-08T20:09:13.220Z,25.90
2022-12-08T20:11:40.270Z,52.97
2022-12-08T20:14:07.258Z,36.67
2022-12-08T20:16:34.829Z,27.40
2022-12-08T20:19:01.992Z,21.03
2022-12-08T20:21:28.864Z,25.30
2022-12-08T20:23:55.847Z,28.73
2022-12-08T20:26:23.409Z,26.83
2022-12-08T20:28:50.599Z,26.53
2022-12-08T20:31:22.476Z,19.53
2022-12-08T20:33:49.408Z,29.43
2022-12-08T20:36:18.925Z,16.53
2022-12-08T20:38:47.207Z,19.77
2022-12-08T20:41:16.106Z,28.83
2022-12-08T20:43:47.584Z,27.30
2022-12-08T20:46:17.230Z,26.77
2022-12-08T20:48:44.925Z,18.80
2022-12-08T20:51:19.545Z,21.63
2022-12-08T20:53:47.097Z,18.07
2022-12-08T20:56:19.406Z,22.53
2022-12-08T20:58:46.746Z,14.53
2022-12-08T21:01:16.140Z,16.83
2022-12-08T21:03:44.462Z,22.57
2022-12-08T21:06:12.497Z,13.70
2022-12-08T21:08:40.280Z,17.23
2022-12-08T21:11:08.025Z,16.03
2022-12-08T21:13:37.007Z,17.30
2022-12-08T21:16:04.909Z,16.90
2022-12-08T21:18:38.936Z,13.67
2022-12-08T21:21:12.624Z,15.50
2022-12-08T21:23:39.716Z,17.13
2022-12-08T21:26:12.402Z,14.53
2022-12-08T21:28:39.435Z,11.87
2022-12-08T21:31:08.522Z,12.73
2022-12-08T21:33:35.903Z,11.80
2022-12-08T21:36:09.430Z,12.27
2022-12-08T21:38:37.533Z,11.30
2022-12-08T21:41:11.315Z,9.60
2022-12-08T21:43:38.084Z,11.53
2022-12-08T21:46:05.365Z,12.67
2022-12-08T21:48:32.327Z,10.20
2022-12-08T21:51:04.810Z,10.60
2022-12-08T21:53:31.716Z,11.00
2022-12-08T21:55:58.562Z,10.77
2022-12-08T21:58:26.557Z,11.30
2022-12-08T22:00:53.513Z,12.30
2022-12-08T22:03:20.359Z,13.70
2022-12-08T22:05:47.424Z,12.33
2022-12-08T22:08:14.392Z,13.80
2022-12-08T22:10:46.329Z,13.67
2022-12-08T22:13:13.188Z,12.30
2022-12-08T22:15:40.233Z,12.87
2022-12-08T22:18:08.517Z,13.70
2022-12-08T22:20:39.518Z,16.10
2022-12-08T22:23:09.155Z,14.30
2022-12-08T22:25:36.123Z,14.23
2022-12-08T22:28:03.835Z,15.13
2022-12-08T22:30:35.560Z,13.20
2022-12-08T22:33:04.315Z,12.40
2022-12-08T22:35:31.149Z,14.33
2022-12-08T22:37:57.785Z,14.43
2022-12-08T22:40:24.653Z,13.27
2022-12-08T22:42:51.342Z,14.77
2022-12-08T22:45:18.143Z,13.97
2022-12-08T22:47:44.920Z,14.77
2022-12-08T22:50:12.132Z,14.93
2022-12-08T22:52:39.374Z,14.20
2022-12-08T22:55:06.961Z,13.70
2022-12-08T22:57:33.785Z,13.13
2022-12-08T23:00:00.606Z,14.57
2022-12-08T23:02:27.377Z,13.80
2022-12-08T23:04:57.296Z,14.57
2022-12-08T23:07:24.743Z,13.63
2022-12-08T23:09:52.049Z,14.50
2022-12-08T23:12:19.184Z,16.17
2022-12-08T23:14:45.785Z,14.63
2022-12-08T23:17:12.780Z,16.03
2022-12-08T23:19:40.106Z,13.47
2022-12-08T23:22:06.776Z,14.40
2022-12-08T23:24:33.551Z,14.97
2022-12-08T23:27:00.390Z,11.57
2022-12-08T23:29:27.478Z,12.60
2022-12-08T23:31:54.336Z,13.40
2022-12-08T23:34:21.301Z,15.13
2022-12-08T23:36:48.560Z,15.03
2022-12-08T23:39:15.302Z,16.60
2022-12-08T23:41:42.352Z,13.37
2022-12-08T23:44:09.263Z,14.53
2022-12-08T23:46:36.227Z,16.43
2022-12-08T23:49:03.099Z,14.80
2022-12-08T23:51:30.157Z,14.00
2022-12-08T23:53:56.830Z,14.20
2022-12-08T23:56:28.628Z,17.23
2022-12-08T23:58:57.239Z,14.63
